Terminal Aerodrome Forecast
Issued by NWS

Home | Current Version | Previous Version | Text Only | Print | Product List | Glossary On
Versions: 1 2 3 4 5 6 7 8 9 10 11 12 13 14 15 16 17 18 19 20 21
000
FTUS46 KEKA 191151
TAFCEC
TAF
KCEC 191151Z 1912/2012 00000KT 5SM BR SCT004
      TEMPO 1912/1915 1SM BR VV004
     FM191600 01006KT P6SM SKC
     FM192100 29008KT P6SM SKC
     FM200200 16006KT P6SM SCT010
     FM200400 15005KT 3SM BR OVC007=

USA.gov is the U.S. government's official web portal to all federal, state and local government web resources and services.